Terminal Aerodrome Forecast
Issued by NWS Twin Cities, MN

Home | Current Version | Previous Version | Text Only | Print | Product List | Glossary Off
Versions: 1 2 3 4 5 6 7 8 9 10 11 12 13 14 15 16 17 18 19 20 21 22 23 24 25

000
FTUS43 KMPX 220000 CCB
TAFSTC
TAF COR
KSTC 220015Z 2200/2224 VRB04KT P6SM SCT010
      TEMPO 2200/2202 BKN010
     FM220400 VRB03KT 4SM BR SCT003
     FM220700 00000KT 1/2SM FG VV001
      TEMPO 2208/2212 1/4SM FG VV001
     FM221400 35004KT 4SM BR OVC007
     FM221700 33004KT P6SM SCT020=

USA.gov is the U.S. government's official web portal to all federal, state and local government web resources and services.